createdAt,value
2022-12-24T00:00:55.162Z,9.30
2022-12-24T00:02:56.947Z,9.30
2022-12-24T00:05:01.075Z,9.20
2022-12-24T00:07:03.517Z,9.20
2022-12-24T00:09:05.149Z,9.30
2022-12-24T00:11:06.954Z,9.30
2022-12-24T00:13:10.391Z,9.30
2022-12-24T00:15:12.061Z,9.20
2022-12-24T00:17:13.695Z,9.30
2022-12-24T00:19:15.418Z,9.30
2022-12-24T00:21:17.054Z,9.20
2022-12-24T00:23:19.444Z,9.30
2022-12-24T00:25:21.017Z,9.20
2022-12-24T00:27:22.578Z,9.20
2022-12-24T00:29:24.294Z,9.20
2022-12-24T00:31:26.036Z,9.10
2022-12-24T00:33:27.698Z,9.10
2022-12-24T00:35:29.615Z,9.10
2022-12-24T00:37:31.210Z,9.10
2022-12-24T00:39:32.873Z,9.10
2022-12-24T00:41:34.544Z,9.10
2022-12-24T00:43:36.228Z,9.00
2022-12-24T00:45:38.918Z,9.00
2022-12-24T00:47:40.677Z,9.00
2022-12-24T00:49:42.232Z,9.00
2022-12-24T00:51:43.883Z,9.00
2022-12-24T00:53:45.526Z,9.00
2022-12-24T00:55:47.092Z,9.00
2022-12-24T00:57:48.730Z,9.00
2022-12-24T00:59:50.539Z,9.10
2022-12-24T01:01:52.238Z,9.00
2022-12-24T01:04:17.946Z,9.00
2022-12-24T01:06:21.351Z,9.00
2022-12-24T01:08:22.944Z,8.90
2022-12-24T01:10:24.627Z,8.90
2022-12-24T01:12:26.689Z,9.00
2022-12-24T01:14:28.330Z,9.00
2022-12-24T01:16:30.254Z,9.00
2022-12-24T01:18:31.973Z,9.10
2022-12-24T01:20:33.631Z,9.10
2022-12-24T01:22:35.558Z,9.10
2022-12-24T01:24:37.110Z,9.10
2022-12-24T01:26:39.823Z,9.10
2022-12-24T01:28:41.435Z,9.10
2022-12-24T01:30:43.278Z,9.10
2022-12-24T01:32:44.856Z,9.20
2022-12-24T01:34:46.406Z,9.20
2022-12-24T01:36:48.051Z,9.20
2022-12-24T01:38:49.691Z,9.30
2022-12-24T01:41:10.068Z,9.30
2022-12-24T01:43:25.723Z,9.30
2022-12-24T01:45:42.576Z,9.30
2022-12-24T01:47:44.308Z,9.30
2022-12-24T01:50:06.191Z,9.30
2022-12-24T01:52:29.241Z,9.30
2022-12-24T01:54:32.708Z,9.30
2022-12-24T01:56:36.317Z,9.30
2022-12-24T01:58:38.834Z,9.30
2022-12-24T02:00:42.559Z,9.30
2022-12-24T02:02:46.393Z,9.30
2022-12-24T02:05:03.223Z,9.30
2022-12-24T02:07:05.162Z,9.40
2022-12-24T02:09:07.211Z,9.40
2022-12-24T02:11:09.937Z,9.50
2022-12-24T02:13:12.264Z,9.50
2022-12-24T02:15:15.294Z,9.50
2022-12-24T02:17:23.041Z,9.50
2022-12-24T02:19:41.493Z,9.50
2022-12-24T02:21:55.085Z,9.50
2022-12-24T02:24:07.487Z,9.50
2022-12-24T02:26:15.984Z,9.50
2022-12-24T02:28:36.399Z,9.40
2022-12-24T02:30:48.563Z,9.40
2022-12-24T02:33:08.306Z,9.40
2022-12-24T02:35:10.068Z,9.40
2022-12-24T02:37:22.199Z,9.30
2022-12-24T02:39:30.493Z,9.30
2022-12-24T02:41:54.209Z,9.30
2022-12-24T02:43:57.381Z,9.20
2022-12-24T02:46:01.137Z,9.30
2022-12-24T02:48:02.820Z,9.20
2022-12-24T02:50:07.181Z,9.20
2022-12-24T02:52:27.295Z,9.30
2022-12-24T02:54:29.360Z,9.30
2022-12-24T02:56:49.659Z,9.30
2022-12-24T02:58:51.181Z,9.30
2022-12-24T03:00:52.802Z,9.20
2022-12-24T03:03:11.948Z,9.20
2022-12-24T03:05:27.178Z,9.10
2022-12-24T03:07:36.077Z,9.10
2022-12-24T03:09:37.716Z,9.10
2022-12-24T03:11:42.023Z,9.10
2022-12-24T03:13:43.847Z,9.10
2022-12-24T03:15:46.264Z,9.10
2022-12-24T03:17:49.198Z,9.00
2022-12-24T03:19:51.334Z,9.10
2022-12-24T03:21:54.703Z,9.10
2022-12-24T03:23:56.572Z,9.10
2022-12-24T03:26:00.066Z,9.00
2022-12-24T03:28:03.326Z,9.00
2022-12-24T03:30:08.405Z,9.00
2022-12-24T03:32:10.110Z,9.00
2022-12-24T03:34:12.509Z,9.00
2022-12-24T03:36:14.116Z,9.00
2022-12-24T03:38:15.735Z,9.00
2022-12-24T03:40:17.646Z,9.10
2022-12-24T03:42:19.304Z,9.00
2022-12-24T03:44:20.851Z,9.00
2022-12-24T03:46:22.638Z,9.00
2022-12-24T03:48:32.164Z,9.00
2022-12-24T03:50:34.277Z,9.00
2022-12-24T03:52:36.050Z,9.10
2022-12-24T03:54:37.620Z,9.00
2022-12-24T03:56:39.172Z,9.00
2022-12-24T03:58:40.744Z,9.00
2022-12-24T04:00:42.389Z,9.00
2022-12-24T04:02:44.248Z,9.00
2022-12-24T04:04:45.925Z,9.00
2022-12-24T04:06:47.539Z,9.00
2022-12-24T04:08:49.177Z,9.00
2022-12-24T04:10:50.911Z,9.00
2022-12-24T04:12:52.468Z,9.00
2022-12-24T04:14:54.092Z,9.00
2022-12-24T04:16:55.748Z,9.00
2022-12-24T04:18:57.487Z,9.00
2022-12-24T04:20:59.430Z,9.00
2022-12-24T04:23:01.066Z,9.00
2022-12-24T04:25:02.628Z,9.00
2022-12-24T04:27:05.337Z,9.00
2022-12-24T04:29:06.947Z,9.00
2022-12-24T04:31:13.390Z,9.00
2022-12-24T04:33:14.977Z,9.00
2022-12-24T04:35:16.518Z,9.00
2022-12-24T04:37:18.103Z,9.00
2022-12-24T04:39:19.717Z,9.00
2022-12-24T04:41:24.255Z,9.00
2022-12-24T04:43:27.075Z,8.90
2022-12-24T04:45:28.763Z,8.90
2022-12-24T04:47:30.400Z,8.90
2022-12-24T04:49:32.024Z,8.90
2022-12-24T04:51:33.671Z,8.90
2022-12-24T04:53:35.743Z,8.80
2022-12-24T04:55:37.308Z,8.80
2022-12-24T04:57:38.993Z,8.80
2022-12-24T04:59:40.599Z,8.80
2022-12-24T05:01:42.328Z,8.80
2022-12-24T05:03:44.313Z,8.80
2022-12-24T05:05:45.992Z,8.80
2022-12-24T05:07:47.525Z,8.70
2022-12-24T05:09:49.155Z,8.70
2022-12-24T05:11:50.802Z,8.70
2022-12-24T05:13:52.665Z,8.70
2022-12-24T05:15:54.621Z,8.80
2022-12-24T05:17:56.260Z,8.80
2022-12-24T05:19:57.868Z,8.70
2022-12-24T05:22:19.409Z,8.70
2022-12-24T05:24:39.399Z,8.70
2022-12-24T05:26:44.447Z,8.70
2022-12-24T05:28:46.153Z,8.70
2022-12-24T05:30:47.797Z,8.70
2022-12-24T05:32:49.462Z,8.70
2022-12-24T05:34:51.054Z,8.70
2022-12-24T05:36:53.771Z,8.70
2022-12-24T05:38:55.321Z,8.70
2022-12-24T05:40:56.880Z,8.70
2022-12-24T05:42:58.531Z,8.70
2022-12-24T05:45:00.115Z,8.70
2022-12-24T05:47:01.656Z,8.70
2022-12-24T05:49:03.359Z,8.70
2022-12-24T05:51:06.191Z,8.60
2022-12-24T05:53:07.836Z,8.60
2022-12-24T05:55:09.661Z,8.50
2022-12-24T05:57:11.271Z,8.50
2022-12-24T05:59:13.324Z,8.40
2022-12-24T06:01:15.167Z,8.40
2022-12-24T06:03:16.836Z,8.40
2022-12-24T06:05:18.458Z,8.40
2022-12-24T06:07:20.050Z,8.40
2022-12-24T06:09:21.672Z,8.40
2022-12-24T06:11:24.775Z,8.30
2022-12-24T06:13:27.113Z,8.30
2022-12-24T06:15:28.822Z,8.30
2022-12-24T06:17:30.374Z,8.30
2022-12-24T06:19:31.932Z,8.30
2022-12-24T06:21:33.574Z,8.30
2022-12-24T06:23:36.360Z,8.30
2022-12-24T06:25:37.982Z,8.20
2022-12-24T06:27:40.754Z,8.20
2022-12-24T06:29:42.328Z,8.20
2022-12-24T06:31:43.960Z,8.20
2022-12-24T06:33:45.751Z,8.20
2022-12-24T06:35:47.678Z,8.20
2022-12-24T06:37:49.248Z,8.20
2022-12-24T06:39:50.855Z,8.20
2022-12-24T06:41:52.405Z,8.20
2022-12-24T06:43:54.367Z,8.10
2022-12-24T06:45:55.969Z,8.20
2022-12-24T06:47:57.783Z,8.20
2022-12-24T06:49:59.532Z,8.20
2022-12-24T06:52:01.101Z,8.20
2022-12-24T06:54:02.842Z,8.10
2022-12-24T06:56:05.458Z,8.10
2022-12-24T06:58:07.170Z,8.10
2022-12-24T07:00:15.278Z,8.10
2022-12-24T07:02:17.034Z,8.20
2022-12-24T07:04:20.568Z,8.20
2022-12-24T07:06:26.370Z,8.20
2022-12-24T07:08:27.965Z,8.30
2022-12-24T07:10:29.685Z,8.30
2022-12-24T07:12:31.320Z,8.30
2022-12-24T07:14:33.038Z,8.30
2022-12-24T07:16:34.844Z,8.30
2022-12-24T07:18:36.632Z,8.30
2022-12-24T07:20:38.703Z,8.40
2022-12-24T07:22:40.351Z,8.40
2022-12-24T07:24:41.925Z,8.40
2022-12-24T07:26:43.555Z,8.40
2022-12-24T07:28:45.159Z,8.40
2022-12-24T07:30:48.022Z,8.40
2022-12-24T07:32:49.615Z,8.40
2022-12-24T07:34:51.344Z,8.40
2022-12-24T07:36:53.064Z,8.30
2022-12-24T07:38:58.308Z,8.30
2022-12-24T07:41:00.167Z,8.30
2022-12-24T07:43:01.819Z,8.30
2022-12-24T07:45:03.574Z,8.30
2022-12-24T07:47:05.303Z,8.30
2022-12-24T07:49:06.985Z,8.40
2022-12-24T07:51:08.898Z,8.40
2022-12-24T07:53:10.563Z,8.30
2022-12-24T07:55:12.388Z,8.40
2022-12-24T07:57:14.838Z,8.30
2022-12-24T07:59:16.624Z,8.30
2022-12-24T08:01:18.678Z,8.30
2022-12-24T08:03:20.921Z,8.30
2022-12-24T08:05:23.350Z,8.30
2022-12-24T08:07:24.991Z,8.30
2022-12-24T08:09:26.589Z,8.40
2022-12-24T08:11:28.259Z,8.40
2022-12-24T08:13:30.019Z,8.30
2022-12-24T08:15:31.881Z,8.30
2022-12-24T08:17:33.709Z,8.40
2022-12-24T08:19:35.716Z,8.40
2022-12-24T08:21:37.325Z,8.40
2022-12-24T08:23:38.975Z,8.40
2022-12-24T08:25:44.346Z,8.40
2022-12-24T08:27:46.308Z,8.50
2022-12-24T08:29:47.949Z,8.50
2022-12-24T08:31:49.586Z,8.60
2022-12-24T08:33:51.217Z,8.60
2022-12-24T08:35:54.113Z,8.70
2022-12-24T08:37:55.799Z,8.70
2022-12-24T08:39:57.444Z,8.70
2022-12-24T08:41:59.106Z,8.80
2022-12-24T08:44:00.886Z,8.80
2022-12-24T08:46:05.959Z,8.80
2022-12-24T08:48:08.538Z,8.80
2022-12-24T08:50:10.497Z,8.80
2022-12-24T08:52:12.292Z,8.90
2022-12-24T08:54:14.544Z,8.80
2022-12-24T08:56:16.371Z,8.80
2022-12-24T08:58:18.046Z,8.80
2022-12-24T09:00:19.688Z,8.80
2022-12-24T09:02:21.517Z,8.80
2022-12-24T09:04:23.343Z,8.80
2022-12-24T09:06:25.260Z,8.80
2022-12-24T09:08:26.859Z,8.90
2022-12-24T09:10:28.538Z,8.90
2022-12-24T09:12:30.167Z,8.90
2022-12-24T09:14:31.804Z,8.90
2022-12-24T09:16:33.533Z,9.00
2022-12-24T09:18:35.273Z,9.10
2022-12-24T09:20:36.894Z,9.10
2022-12-24T09:22:39.077Z,9.20
2022-12-24T09:24:40.746Z,9.50
2022-12-24T09:26:42.514Z,9.70
2022-12-24T09:28:44.516Z,9.80
2022-12-24T09:30:54.287Z,9.90
2022-12-24T09:32:55.898Z,10.10
2022-12-24T09:34:57.752Z,10.20
2022-12-24T09:37:00.654Z,10.10
2022-12-24T09:39:02.409Z,10.00
2022-12-24T09:41:25.839Z,10.10
2022-12-24T09:43:30.799Z,10.20
2022-12-24T09:45:35.342Z,10.40
2022-12-24T09:47:43.199Z,10.40
2022-12-24T09:49:48.109Z,10.40
2022-12-24T09:52:04.264Z,10.20
2022-12-24T09:54:11.351Z,10.10
2022-12-24T09:56:15.997Z,10.10
2022-12-24T09:58:23.626Z,10.00
2022-12-24T10:00:33.077Z,9.90
2022-12-24T10:02:34.858Z,9.80
2022-12-24T10:04:36.643Z,10.00
2022-12-24T10:06:45.449Z,10.20
2022-12-24T10:08:56.065Z,10.30
2022-12-24T10:11:07.676Z,10.30
2022-12-24T10:13:22.596Z,10.60
2022-12-24T10:15:30.344Z,10.70
2022-12-24T10:17:34.955Z,11.00
2022-12-24T10:19:54.889Z,11.20
2022-12-24T10:21:59.603Z,11.30
2022-12-24T10:24:01.196Z,11.10
2022-12-24T10:26:25.894Z,10.90
2022-12-24T10:28:37.377Z,10.90
2022-12-24T10:30:39.131Z,10.90
2022-12-24T10:32:40.880Z,11.10
2022-12-24T10:34:48.104Z,11.10
2022-12-24T10:36:49.665Z,11.10
2022-12-24T10:38:51.281Z,11.00
2022-12-24T10:40:54.649Z,10.90
2022-12-24T10:42:56.342Z,11.00
2022-12-24T10:45:02.269Z,10.90
2022-12-24T10:47:06.555Z,11.00
2022-12-24T10:49:16.017Z,11.00
2022-12-24T10:51:23.589Z,11.10
2022-12-24T10:53:32.789Z,11.10
2022-12-24T10:55:34.415Z,11.10
2022-12-24T10:57:36.098Z,11.40
2022-12-24T10:59:50.177Z,11.50
2022-12-24T11:01:52.566Z,11.60
2022-12-24T11:04:01.328Z,11.60
2022-12-24T11:06:08.007Z,11.50
2022-12-24T11:08:12.907Z,11.60
2022-12-24T11:10:23.416Z,11.60
2022-12-24T11:12:30.641Z,11.50
2022-12-24T11:14:37.295Z,11.50
2022-12-24T11:16:38.919Z,11.40
2022-12-24T11:18:52.261Z,11.30
2022-12-24T11:20:54.357Z,11.40
2022-12-24T11:22:56.398Z,11.60
2022-12-24T11:25:00.173Z,11.60
2022-12-24T11:27:22.046Z,11.70
2022-12-24T11:29:28.123Z,11.70
2022-12-24T11:31:33.044Z,11.60
2022-12-24T11:33:46.337Z,11.60
2022-12-24T11:35:49.770Z,11.60
2022-12-24T11:38:00.304Z,11.40
2022-12-24T11:40:02.314Z,11.30
2022-12-24T11:42:04.075Z,11.40
2022-12-24T11:44:07.791Z,11.40
2022-12-24T11:46:17.596Z,11.40
2022-12-24T11:48:34.587Z,11.40
2022-12-24T11:50:36.923Z,11.50
2022-12-24T11:52:38.631Z,11.70
2022-12-24T11:54:43.282Z,11.90
2022-12-24T11:56:50.050Z,12.10
2022-12-24T11:58:55.358Z,12.20
2022-12-24T12:01:15.407Z,12.30
2022-12-24T12:03:27.966Z,12.40
2022-12-24T12:05:32.875Z,12.60
2022-12-24T12:07:35.561Z,12.70
2022-12-24T12:09:38.992Z,12.70
2022-12-24T12:11:43.006Z,12.70
2022-12-24T12:13:45.423Z,12.80
2022-12-24T12:16:05.909Z,12.90
2022-12-24T12:18:09.882Z,12.80
2022-12-24T12:20:18.900Z,13.00
2022-12-24T12:22:28.335Z,13.00
2022-12-24T12:24:34.345Z,13.40
2022-12-24T12:26:36.504Z,13.40
2022-12-24T12:28:44.057Z,13.50
2022-12-24T12:30:46.873Z,13.50
2022-12-24T12:32:49.167Z,13.60
2022-12-24T12:34:57.080Z,13.80
2022-12-24T12:37:02.430Z,13.90
2022-12-24T12:39:04.777Z,14.30
2022-12-24T12:41:25.172Z,14.30
2022-12-24T12:43:29.883Z,14.50
2022-12-24T12:45:31.627Z,14.80
2022-12-24T12:47:36.182Z,14.70
2022-12-24T12:49:50.504Z,15.00
2022-12-24T12:52:02.199Z,14.90
2022-12-24T12:54:03.797Z,15.00
2022-12-24T12:56:18.087Z,14.80
2022-12-24T12:58:25.929Z,14.60
2022-12-24T13:00:29.699Z,14.60
2022-12-24T13:02:43.565Z,14.10
2022-12-24T13:05:17.640Z,13.90
2022-12-24T13:07:31.484Z,13.70
2022-12-24T13:09:37.499Z,13.70
2022-12-24T13:11:57.729Z,13.50
2022-12-24T13:14:27.708Z,13.50
2022-12-24T13:16:29.409Z,13.50
2022-12-24T13:18:44.700Z,13.30
2022-12-24T13:20:50.232Z,13.20
2022-12-24T13:22:55.334Z,13.20
2022-12-24T13:24:57.143Z,13.10
2022-12-24T13:27:03.568Z,13.00
2022-12-24T13:29:37.587Z,12.90
2022-12-24T13:31:39.173Z,12.90
2022-12-24T13:33:40.850Z,12.90
2022-12-24T13:35:59.483Z,12.80
2022-12-24T13:38:23.816Z,12.70
2022-12-24T13:40:26.270Z,12.80
2022-12-24T13:42:46.767Z,12.80
2022-12-24T13:45:08.272Z,12.80
2022-12-24T13:47:18.602Z,12.80
2022-12-24T13:49:26.392Z,12.70
2022-12-24T13:51:28.396Z,12.60
2022-12-24T13:53:33.019Z,12.50
2022-12-24T13:55:34.618Z,12.40
2022-12-24T13:57:52.911Z,12.30
2022-12-24T14:00:02.280Z,12.20
2022-12-24T14:02:04.426Z,12.10
2022-12-24T14:04:08.062Z,12.00
2022-12-24T14:06:22.148Z,11.90
2022-12-24T14:08:45.477Z,11.80
2022-12-24T14:10:57.445Z,11.80
2022-12-24T14:12:59.257Z,11.80
2022-12-24T14:15:20.848Z,11.90
2022-12-24T14:17:24.211Z,11.90
2022-12-24T14:19:33.705Z,11.90
2022-12-24T14:21:59.198Z,11.80
2022-12-24T14:24:02.957Z,11.90
2022-12-24T14:26:11.912Z,11.90
2022-12-24T14:28:17.329Z,11.90
2022-12-24T14:30:19.143Z,11.90
2022-12-24T14:32:20.735Z,11.80
2022-12-24T14:34:22.685Z,11.70
2022-12-24T14:36:24.459Z,11.60
2022-12-24T14:38:26.385Z,11.50
2022-12-24T14:40:29.772Z,11.50
2022-12-24T14:42:54.692Z,11.40
2022-12-24T14:45:04.205Z,11.40
2022-12-24T14:47:24.247Z,11.30
2022-12-24T14:49:52.077Z,11.30
2022-12-24T14:52:00.499Z,11.30
2022-12-24T14:54:23.956Z,11.20
2022-12-24T14:56:28.364Z,11.20
2022-12-24T14:58:30.786Z,11.10
2022-12-24T15:00:39.143Z,11.20
2022-12-24T15:02:51.576Z,11.40
2022-12-24T15:05:07.755Z,11.30
2022-12-24T15:07:10.847Z,11.40
2022-12-24T15:09:34.326Z,11.30
2022-12-24T15:11:36.242Z,11.30
2022-12-24T15:13:39.472Z,11.30
2022-12-24T15:15:46.920Z,11.20
2022-12-24T15:17:54.097Z,11.00
2022-12-24T15:19:58.106Z,10.90
2022-12-24T15:22:01.302Z,10.80
2022-12-24T15:24:03.640Z,10.60
2022-12-24T15:26:14.248Z,10.50
2022-12-24T15:28:20.518Z,10.50
2022-12-24T15:30:23.819Z,10.50
2022-12-24T15:32:25.572Z,10.50
2022-12-24T15:34:35.937Z,10.40
2022-12-24T15:36:37.728Z,10.40
2022-12-24T15:38:40.748Z,10.30
2022-12-24T15:40:47.960Z,10.30
2022-12-24T15:42:49.840Z,10.20
2022-12-24T15:45:05.944Z,10.20
2022-12-24T15:47:08.688Z,10.20
2022-12-24T15:49:16.440Z,10.10
2022-12-24T15:51:26.286Z,10.10
2022-12-24T15:53:27.990Z,10.00
2022-12-24T15:55:34.611Z,10.00
2022-12-24T15:57:36.447Z,10.00
2022-12-24T15:59:38.208Z,10.00
2022-12-24T16:01:39.903Z,10.00
2022-12-24T16:03:54.275Z,10.00
2022-12-24T16:06:00.413Z,10.00
2022-12-24T16:08:07.715Z,9.90
2022-12-24T16:10:22.930Z,9.90
2022-12-24T16:12:25.940Z,9.80
2022-12-24T16:14:27.713Z,9.80
2022-12-24T16:16:39.857Z,9.80
2022-12-24T16:18:41.571Z,9.80
2022-12-24T16:20:47.207Z,9.80
2022-12-24T16:22:49.415Z,9.80
2022-12-24T16:24:52.651Z,9.80
2022-12-24T16:26:54.703Z,9.80
2022-12-24T16:28:56.362Z,9.80
2022-12-24T16:30:58.366Z,9.70
2022-12-24T16:32:59.929Z,9.70
2022-12-24T16:35:02.389Z,9.70
2022-12-24T16:37:04.461Z,9.70
2022-12-24T16:39:24.168Z,9.70
2022-12-24T16:41:25.730Z,9.60
2022-12-24T16:43:45.848Z,9.60
2022-12-24T16:45:47.953Z,9.60
2022-12-24T16:47:49.574Z,9.60
2022-12-24T16:49:51.287Z,9.60
2022-12-24T16:51:53.008Z,9.60
2022-12-24T16:53:54.616Z,9.50
2022-12-24T16:55:56.342Z,9.50
2022-12-24T16:57:57.971Z,9.50
2022-12-24T16:59:59.566Z,9.50
2022-12-24T17:02:01.294Z,9.50
2022-12-24T17:04:03.100Z,9.50
2022-12-24T17:06:06.323Z,9.50
2022-12-24T17:08:08.287Z,9.50
2022-12-24T17:10:11.399Z,9.60
2022-12-24T17:12:14.141Z,9.50
2022-12-24T17:14:20.310Z,9.50
2022-12-24T17:16:22.657Z,9.50
2022-12-24T17:18:24.257Z,9.40
2022-12-24T17:20:25.979Z,9.40
2022-12-24T17:22:27.781Z,9.40
2022-12-24T17:24:29.454Z,9.40
2022-12-24T17:26:31.206Z,9.30
2022-12-24T17:28:32.869Z,9.40
2022-12-24T17:30:34.488Z,9.40
2022-12-24T17:32:37.375Z,9.50
2022-12-24T17:34:39.139Z,9.40
2022-12-24T17:36:40.891Z,9.40
2022-12-24T17:38:42.477Z,9.40
2022-12-24T17:40:44.092Z,9.40
2022-12-24T17:42:45.775Z,9.40
2022-12-24T17:44:47.342Z,9.40
2022-12-24T17:46:49.162Z,9.40
2022-12-24T17:48:51.229Z,9.40
2022-12-24T17:50:52.933Z,9.40
2022-12-24T17:52:54.531Z,9.40
2022-12-24T17:54:56.129Z,9.40
2022-12-24T17:56:58.729Z,9.40
2022-12-24T17:59:00.364Z,9.40
2022-12-24T18:01:02.218Z,9.40
2022-12-24T18:03:04.372Z,9.40
2022-12-24T18:05:06.277Z,9.40
2022-12-24T18:07:07.963Z,9.50
2022-12-24T18:09:09.659Z,9.50
2022-12-24T18:11:12.998Z,9.50
2022-12-24T18:13:19.289Z,9.50
2022-12-24T18:15:21.736Z,9.50
2022-12-24T18:17:23.280Z,9.40
2022-12-24T18:19:24.862Z,9.40
2022-12-24T18:21:28.387Z,9.40
2022-12-24T18:23:29.994Z,9.40
2022-12-24T18:25:32.110Z,9.40
2022-12-24T18:27:34.880Z,9.40
2022-12-24T18:29:39.898Z,9.40
2022-12-24T18:31:41.518Z,9.40
2022-12-24T18:33:43.739Z,9.40
2022-12-24T18:35:45.456Z,9.40
2022-12-24T18:37:47.236Z,9.50
2022-12-24T18:39:48.841Z,9.50
2022-12-24T18:41:50.909Z,9.40
2022-12-24T18:43:52.983Z,9.50
2022-12-24T18:45:54.532Z,9.40
2022-12-24T18:47:56.305Z,9.40
2022-12-24T18:49:57.904Z,9.40
2022-12-24T18:51:59.620Z,9.40
2022-12-24T18:54:02.706Z,9.40
2022-12-24T18:56:15.689Z,9.40
2022-12-24T18:58:17.261Z,9.40
2022-12-24T19:00:19.217Z,9.40
2022-12-24T19:02:21.079Z,9.40
2022-12-24T19:04:23.044Z,9.40
2022-12-24T19:06:24.952Z,9.40
2022-12-24T19:08:56.624Z,9.40
2022-12-24T19:10:48.533Z,9.40
2022-12-24T19:12:50.269Z,9.40
2022-12-24T19:14:51.937Z,9.40
2022-12-24T19:16:53.888Z,9.30
2022-12-24T19:18:55.891Z,9.30
2022-12-24T19:20:57.772Z,9.30
2022-12-24T19:22:59.373Z,9.30
2022-12-24T19:25:01.157Z,9.30
2022-12-24T19:27:03.823Z,9.30
2022-12-24T19:29:05.552Z,9.30
2022-12-24T19:31:08.680Z,9.30
2022-12-24T19:33:10.756Z,9.30
2022-12-24T19:35:12.349Z,9.30
2022-12-24T19:37:14.740Z,9.30
2022-12-24T19:39:16.467Z,9.30
2022-12-24T19:41:22.158Z,9.30
2022-12-24T19:43:23.780Z,9.30
2022-12-24T19:45:25.623Z,9.20
2022-12-24T19:47:27.459Z,9.20
2022-12-24T19:49:29.143Z,9.20
2022-12-24T19:51:30.948Z,9.20
2022-12-24T19:53:32.538Z,9.20
2022-12-24T19:55:34.180Z,9.20
2022-12-24T19:57:35.950Z,9.20
2022-12-24T19:59:37.699Z,9.20
2022-12-24T20:01:39.441Z,9.10
2022-12-24T20:03:41.178Z,9.20
2022-12-24T20:05:42.967Z,9.20
2022-12-24T20:07:47.736Z,9.20
2022-12-24T20:09:49.330Z,9.10
2022-12-24T20:11:51.017Z,9.10
2022-12-24T20:13:55.806Z,9.10
2022-12-24T20:15:57.495Z,9.10
2022-12-24T20:17:59.414Z,9.10
2022-12-24T20:20:01.016Z,9.10
2022-12-24T20:22:02.740Z,9.10
2022-12-24T20:24:06.571Z,9.10
2022-12-24T20:26:10.528Z,9.10
2022-12-24T20:28:12.079Z,9.10
2022-12-24T20:30:13.867Z,9.10
2022-12-24T20:32:15.584Z,9.10
2022-12-24T20:34:17.300Z,9.10
2022-12-24T20:36:20.110Z,9.10
2022-12-24T20:38:21.673Z,9.10
2022-12-24T20:40:23.342Z,9.10
2022-12-24T20:42:24.925Z,9.10
2022-12-24T20:44:26.547Z,9.10
2022-12-24T20:46:28.850Z,9.10
2022-12-24T20:48:31.115Z,9.10
2022-12-24T20:50:32.825Z,9.10
2022-12-24T20:52:34.466Z,9.10
2022-12-24T20:54:36.065Z,9.00
2022-12-24T20:56:38.144Z,9.00
2022-12-24T20:58:39.970Z,9.00
2022-12-24T21:00:41.954Z,9.00
2022-12-24T21:02:43.673Z,9.00
2022-12-24T21:04:45.430Z,9.00
2022-12-24T21:06:47.092Z,9.00
2022-12-24T21:08:50.089Z,9.00
2022-12-24T21:11:11.625Z,8.90
2022-12-24T21:13:13.185Z,9.00
2022-12-24T21:15:19.199Z,8.90
2022-12-24T21:17:20.844Z,8.90
2022-12-24T21:19:23.935Z,8.90
2022-12-24T21:21:25.616Z,8.90
2022-12-24T21:23:27.384Z,8.90
2022-12-24T21:25:29.025Z,8.90
2022-12-24T21:27:32.236Z,8.90
2022-12-24T21:29:33.888Z,8.90
2022-12-24T21:31:36.045Z,8.90
2022-12-24T21:33:38.668Z,8.90
2022-12-24T21:35:40.336Z,8.90
2022-12-24T21:37:44.707Z,8.90
2022-12-24T21:39:48.030Z,8.90
2022-12-24T21:41:49.623Z,8.90
2022-12-24T21:43:51.570Z,8.90
2022-12-24T21:45:53.817Z,8.90
2022-12-24T21:47:55.488Z,8.90
2022-12-24T21:50:15.715Z,8.90
2022-12-24T21:52:17.305Z,8.90
2022-12-24T21:54:27.398Z,8.80
2022-12-24T21:56:29.116Z,8.90
2022-12-24T21:58:30.812Z,8.90
2022-12-24T22:00:32.485Z,8.90
2022-12-24T22:02:37.712Z,8.90
2022-12-24T22:04:39.647Z,8.90
2022-12-24T22:06:59.804Z,8.90
2022-12-24T22:09:20.614Z,8.90
2022-12-24T22:11:40.865Z,8.80
2022-12-24T22:13:42.496Z,8.90
2022-12-24T22:15:46.024Z,8.80
2022-12-24T22:17:47.625Z,8.80
2022-12-24T22:19:49.286Z,8.90
2022-12-24T22:21:50.892Z,8.90
2022-12-24T22:23:52.571Z,8.90
2022-12-24T22:25:55.167Z,8.90
2022-12-24T22:27:56.783Z,8.90
2022-12-24T22:29:58.770Z,8.80
2022-12-24T22:32:00.332Z,8.80
2022-12-24T22:34:01.954Z,8.80
2022-12-24T22:36:05.399Z,8.80
2022-12-24T22:38:10.435Z,8.80
2022-12-24T22:40:12.904Z,8.80
2022-12-24T22:42:14.582Z,8.70
2022-12-24T22:44:16.202Z,8.70
2022-12-24T22:46:18.071Z,8.70
2022-12-24T22:48:19.799Z,8.60
2022-12-24T22:50:21.510Z,8.60
2022-12-24T22:52:23.083Z,8.60
2022-12-24T22:54:25.661Z,8.50
2022-12-24T22:56:27.436Z,8.50
2022-12-24T22:58:29.113Z,8.50
2022-12-24T23:00:41.453Z,8.50
2022-12-24T23:02:44.579Z,8.50
2022-12-24T23:04:46.888Z,8.50
2022-12-24T23:06:49.673Z,8.50
2022-12-24T23:08:51.252Z,8.50
2022-12-24T23:10:53.887Z,8.50
2022-12-24T23:13:28.049Z,8.50
2022-12-24T23:15:29.708Z,8.50
2022-12-24T23:17:31.413Z,8.50
2022-12-24T23:19:33.753Z,8.40
2022-12-24T23:21:35.750Z,8.40
2022-12-24T23:23:37.648Z,8.40
2022-12-24T23:25:40.478Z,8.40
2022-12-24T23:27:42.114Z,8.40
2022-12-24T23:29:43.727Z,8.40
2022-12-24T23:31:45.344Z,8.30
2022-12-24T23:33:47.546Z,8.30
2022-12-24T23:35:49.312Z,8.30
2022-12-24T23:37:50.902Z,8.30
2022-12-24T23:39:52.542Z,8.30
2022-12-24T23:41:54.196Z,8.30
2022-12-24T23:43:55.934Z,8.30
2022-12-24T23:45:57.857Z,8.30
2022-12-24T23:47:59.521Z,8.30
2022-12-24T23:50:01.165Z,8.30
2022-12-24T23:52:02.704Z,8.30
2022-12-24T23:54:04.333Z,8.30
2022-12-24T23:56:07.143Z,8.30
2022-12-24T23:58:10.114Z,8.30
